Time;durP1;ratioP1;P1;durP2;ratioP2;P2;SDS_P1;SDS_P2;PMS_P1;PMS_P2;Temp;Humidity;BMP_temperature;BMP_pressure;BME280_temperature;BME280_humidity;BME280_pressure;Samples;Min_cycle;Max_cycle;Signal;HPM_P1;HPM_P2
2023/08/31 00:00:55;;;;;;;;;;;;;;;24.68;39.79;98884.94;3164018;28;19934;-66
2023/08/31 00:02:26;;;;;;;;;;;;;;;24.67;39.54;98884.09;3170060;28;19974;-66
2023/08/31 00:03:59;;;;;;;;;;;;;;;24.67;39.59;98891.28;3169706;28;19924;-66
2023/08/31 00:05:30;;;;;;;;;;;;;;;24.67;39.50;98884.09;3169846;28;20011;-66
2023/08/31 00:07:02;;;;;;;;;;;;;;;24.67;39.53;98881.44;3169773;28;19961;-66
2023/08/31 00:08:34;;;;;;;;;;;;;;;24.66;39.52;98884.28;3170057;28;19930;-66
2023/08/31 00:10:09;;;;;;;;;;;;;;;24.66;39.63;98882.44;3156939;28;19975;-66
2023/08/31 00:11:40;;;;;;;;;;;;;;;24.64;39.65;98887.13;3169597;28;20331;-65
2023/08/31 00:13:12;;;;;;;;;;;;;;;24.60;39.84;98883.16;3165638;28;19936;-65
2023/08/31 00:14:42;;;;;;;;;;;;;;;24.57;39.85;98880.88;3167167;28;19924;-65
2023/08/31 00:16:14;;;;;;;;;;;;;;;24.54;39.74;98889.22;3167619;28;19928;-65
2023/08/31 00:17:44;;;;;;;;;;;;;;;24.52;40.02;98894.75;3169998;28;19931;-65
2023/08/31 00:19:16;;;;;;;;;;;;;;;24.52;39.96;98891.22;3170023;28;19924;-65
2023/08/31 00:20:47;;;;;;;;;;;;;;;24.51;39.71;98892.25;3170171;28;19927;-65
2023/08/31 00:22:18;;;;;;;;;;;;;;;24.50;39.69;98898.59;3169946;28;19924;-65
2023/08/31 00:23:50;;;;;;;;;;;;;;;24.47;39.97;98890.97;3170175;28;19927;-65
2023/08/31 00:25:22;;;;;;;;;;;;;;;24.43;40.02;98897.63;3165150;28;20311;-66
2023/08/31 00:26:53;;;;;;;;;;;;;;;24.42;39.98;98898.63;3170138;28;19924;-65
2023/08/31 00:28:25;;;;;;;;;;;;;;;24.39;39.82;98893.66;3169530;28;19928;-66
2023/08/31 00:29:57;;;;;;;;;;;;;;;24.37;39.87;98895.66;3165004;28;19928;-65
2023/08/31 00:31:30;;;;;;;;;;;;;;;24.34;40.02;98896.84;3170356;28;19931;-65
2023/08/31 00:33:01;;;;;;;;;;;;;;;24.28;39.98;98901.06;3169360;28;20396;-65
2023/08/31 00:34:33;;;;;;;;;;;;;;;24.28;40.10;98902.88;3170231;28;19924;-65
2023/08/31 00:36:05;;;;;;;;;;;;;;;24.25;40.28;98901.44;3145121;28;19970;-65
2023/08/31 00:37:35;;;;;;;;;;;;;;;24.23;39.93;98899.97;3171343;28;20396;-65
2023/08/31 00:39:10;;;;;;;;;;;;;;;24.21;40.30;98900.13;3171984;28;20006;-65
2023/08/31 00:40:45;;;;;;;;;;;;;;;24.20;40.01;98902.97;3170397;28;19934;-65
2023/08/31 00:42:15;;;;;;;;;;;;;;;24.20;40.25;98906.47;3172058;28;19924;-65
2023/08/31 00:43:47;;;;;;;;;;;;;;;24.19;40.22;98904.78;3171184;28;20328;-64
2023/08/31 00:45:18;;;;;;;;;;;;;;;24.20;40.03;98906.47;3168160;28;20308;-65
2023/08/31 00:46:50;;;;;;;;;;;;;;;24.22;39.89;98908.91;3171849;28;19947;-65
2023/08/31 00:48:21;;;;;;;;;;;;;;;24.23;40.06;98911.41;3172341;28;19928;-65
2023/08/31 00:49:53;;;;;;;;;;;;;;;24.26;40.07;98911.06;3172007;28;19923;-65
2023/08/31 00:51:23;;;;;;;;;;;;;;;24.26;40.07;98908.41;3171945;28;19924;-65
2023/08/31 00:52:55;;;;;;;;;;;;;;;24.26;39.82;98903.09;3171690;28;19930;-66
2023/08/31 00:54:27;;;;;;;;;;;;;;;24.27;40.15;98904.72;3172091;28;19927;-65
2023/08/31 00:55:58;;;;;;;;;;;;;;;24.26;39.95;98900.41;3161917;28;20369;-65
2023/08/31 00:57:29;;;;;;;;;;;;;;;24.27;39.89;98912.72;3172228;28;19924;-65
2023/08/31 00:59:00;;;;;;;;;;;;;;;24.27;40.07;98911.88;3166378;28;19931;-66
2023/08/31 01:00:40;;;;;;;;;;;;;;;24.25;39.94;98908.56;3168156;28;19968;-64
2023/08/31 01:02:16;;;;;;;;;;;;;;;24.26;39.89;98902.25;3147229;28;20459;-65
2023/08/31 01:03:51;;;;;;;;;;;;;;;24.25;40.23;98906.75;3171885;28;20425;-64
2023/08/31 01:05:29;;;;;;;;;;;;;;;24.25;40.04;98906.75;3147038;28;19928;-64
2023/08/31 01:07:06;;;;;;;;;;;;;;;24.28;39.96;98910.88;3147194;28;20085;-64
2023/08/31 01:08:40;;;;;;;;;;;;;;;24.27;39.87;98910.03;3149362;28;19974;-65
2023/08/31 01:10:19;;;;;;;;;;;;;;;24.29;39.93;98918.69;3160490;28;19928;-65
2023/08/31 01:11:56;;;;;;;;;;;;;;;24.28;39.96;98909.06;3171629;28;20441;-64
2023/08/31 01:13:31;;;;;;;;;;;;;;;24.28;40.17;98914.38;3166740;28;19931;-65
2023/08/31 01:15:04;;;;;;;;;;;;;;;24.29;39.96;98909.88;3171645;28;19951;-65
2023/08/31 01:16:36;;;;;;;;;;;;;;;24.27;39.89;98918.03;3171912;28;19924;-65
2023/08/31 01:18:09;;;;;;;;;;;;;;;24.28;40.05;98925.03;3172331;28;20014;-65
2023/08/31 01:19:48;;;;;;;;;;;;;;;24.28;39.94;98919.69;3147031;28;19925;-65
2023/08/31 01:21:23;;;;;;;;;;;;;;;24.29;40.22;98918.69;3146583;28;19924;-65
2023/08/31 01:22:58;;;;;;;;;;;;;;;24.30;40.10;98922.16;3146698;28;19925;-66
2023/08/31 01:24:31;;;;;;;;;;;;;;;24.30;39.93;98925.66;3168461;28;20415;-64
2023/08/31 01:26:02;;;;;;;;;;;;;;;24.31;40.25;98929.13;3160703;28;20411;-64
2023/08/31 01:27:33;;;;;;;;;;;;;;;24.30;39.97;98933.63;3168334;28;20541;-63
2023/08/31 01:29:05;;;;;;;;;;;;;;;24.29;40.22;98926.66;3168096;28;19924;-63
2023/08/31 01:30:36;;;;;;;;;;;;;;;24.32;40.01;98935.31;3171700;28;20325;-63
2023/08/31 01:32:08;;;;;;;;;;;;;;;24.30;40.02;98933.63;3171530;28;19924;-64
2023/08/31 01:33:38;;;;;;;;;;;;;;;24.29;40.03;98929.31;3171503;28;20110;-63
2023/08/31 01:35:11;;;;;;;;;;;;;;;24.29;40.08;98937.31;3171324;28;20469;-64
2023/08/31 01:36:43;;;;;;;;;;;;;;;24.33;40.18;98934.28;3166563;28;19935;-63
2023/08/31 01:38:17;;;;;;;;;;;;;;;24.32;40.18;98930.81;3171532;28;20308;-63
2023/08/31 01:39:52;;;;;;;;;;;;;;;24.33;39.80;98932.44;3171751;28;20014;-63
2023/08/31 01:41:26;;;;;;;;;;;;;;;24.34;39.80;98935.94;3163262;28;19923;-63
2023/08/31 01:42:56;;;;;;;;;;;;;;;24.36;40.05;98942.75;3167087;28;20388;-63
2023/08/31 01:44:30;;;;;;;;;;;;;;;24.38;40.11;98939.91;3171667;28;19924;-63
2023/08/31 01:46:01;;;;;;;;;;;;;;;24.38;39.79;98946.06;3171537;28;19928;-64
2023/08/31 01:47:33;;;;;;;;;;;;;;;24.40;39.70;98948.53;3171543;28;20054;-64
2023/08/31 01:49:05;;;;;;;;;;;;;;;24.39;40.20;98952.19;3169996;28;19924;-65
2023/08/31 01:50:36;;;;;;;;;;;;;;;24.39;39.76;98946.88;3171985;28;20348;-65
2023/08/31 01:52:08;;;;;;;;;;;;;;;24.41;40.07;98944.88;3171577;28;19928;-66
2023/08/31 01:53:39;;;;;;;;;;;;;;;24.40;40.04;98943.19;3170840;28;20477;-66
2023/08/31 01:55:15;;;;;;;;;;;;;;;24.40;39.71;98943.19;3171364;28;19927;-66
2023/08/31 01:56:47;;;;;;;;;;;;;;;24.41;40.12;98945.69;3170189;28;20018;-66
2023/08/31 01:58:17;;;;;;;;;;;;;;;24.42;40.02;98946.53;3168347;28;20317;-66
2023/08/31 01:59:49;;;;;;;;;;;;;;;24.42;39.87;98954.50;3171384;28;19927;-66
2023/08/31 02:01:20;;;;;;;;;;;;;;;24.41;39.72;98948.34;3168924;28;19924;-66
2023/08/31 02:02:51;;;;;;;;;;;;;;;24.39;40.09;98958.34;3168478;28;20011;-65
2023/08/31 02:04:22;;;;;;;;;;;;;;;24.37;39.90;98955.03;3171328;28;20348;-65
2023/08/31 02:05:53;;;;;;;;;;;;;;;24.36;39.73;98955.22;3171203;28;19923;-65
2023/08/31 02:07:24;;;;;;;;;;;;;;;24.34;40.04;98950.06;3171385;28;19924;-65
2023/08/31 02:08:55;;;;;;;;;;;;;;;24.34;40.03;98951.91;3171041;28;20000;-65
2023/08/31 02:10:29;;;;;;;;;;;;;;;24.34;40.14;98954.56;3170360;28;19927;-65
2023/08/31 02:12:01;;;;;;;;;;;;;;;24.35;40.13;98950.91;3160359;28;19924;-65
2023/08/31 02:13:32;;;;;;;;;;;;;;;24.35;39.99;98954.41;3165492;28;19928;-64
2023/08/31 02:15:04;;;;;;;;;;;;;;;24.35;39.89;98958.91;3171161;28;19927;-65
2023/08/31 02:16:35;;;;;;;;;;;;;;;24.33;39.92;98953.75;3171025;28;19924;-65
2023/08/31 02:18:08;;;;;;;;;;;;;;;24.33;39.92;98960.91;3171473;28;19927;-65
2023/08/31 02:19:39;;;;;;;;;;;;;;;24.30;39.72;98959.41;3170793;28;19924;-65
2023/08/31 02:21:10;;;;;;;;;;;;;;;24.27;39.87;98957.94;3164976;28;20408;-65
2023/08/31 02:22:41;;;;;;;;;;;;;;;24.24;40.08;98958.28;3168800;28;19931;-65
2023/08/31 02:24:13;;;;;;;;;;;;;;;24.26;40.24;98960.78;3171127;28;20396;-65
2023/08/31 02:25:44;;;;;;;;;;;;;;;24.25;39.94;98962.63;3169102;28;19931;-65
2023/08/31 02:27:17;;;;;;;;;;;;;;;24.25;39.88;98962.63;3166130;28;19957;-65
2023/08/31 02:28:47;;;;;;;;;;;;;;;24.24;39.98;98958.28;3170455;28;19967;-65
2023/08/31 02:30:19;;;;;;;;;;;;;;;24.22;40.27;98957.63;3169508;28;19983;-66
2023/08/31 02:31:49;;;;;;;;;;;;;;;24.21;40.16;98963.16;3169420;28;19930;-65
2023/08/31 02:33:21;;;;;;;;;;;;;;;24.21;40.27;98957.81;3160637;28;19927;-65
2023/08/31 02:34:52;;;;;;;;;;;;;;;24.20;40.11;98959.66;3170623;28;19953;-65
2023/08/31 02:36:23;;;;;;;;;;;;;;;24.18;39.88;98964.31;3170463;28;20341;-66
2023/08/31 02:37:54;;;;;;;;;;;;;;;24.19;40.13;98963.31;3171058;28;19924;-64
2023/08/31 02:39:25;;;;;;;;;;;;;;;24.18;40.05;98966.16;3170998;28;20288;-64
2023/08/31 02:40:58;;;;;;;;;;;;;;;24.19;40.27;98963.31;3165245;28;19938;-65
2023/08/31 02:42:29;;;;;;;;;;;;;;;24.20;40.18;98966.81;3169707;28;20388;-65
2023/08/31 02:44:00;;;;;;;;;;;;;;;24.19;40.18;98962.50;3170527;28;19954;-65
2023/08/31 02:45:32;;;;;;;;;;;;;;;24.17;40.23;98970.66;3170735;28;20058;-65
2023/08/31 02:47:03;;;;;;;;;;;;;;;24.15;40.27;98972.66;3170737;28;19980;-65
2023/08/31 02:48:34;;;;;;;;;;;;;;;24.13;40.16;98964.03;3170522;28;20018;-65
2023/08/31 02:50:06;;;;;;;;;;;;;;;24.12;40.10;98977.50;3171124;28;19923;-65
2023/08/31 02:51:37;;;;;;;;;;;;;;;24.09;40.27;98973.38;3170403;28;20266;-66
2023/08/31 02:53:08;;;;;;;;;;;;;;;24.06;40.46;98985.19;3170662;28;19927;-65
2023/08/31 02:54:39;;;;;;;;;;;;;;;24.08;40.16;98987.69;3170788;28;20352;-65
2023/08/31 02:56:11;;;;;;;;;;;;;;;24.09;40.33;98991.16;3165844;28;20021;-65
2023/08/31 02:57:43;;;;;;;;;;;;;;;24.05;40.19;98986.19;3170565;28;20006;-65
2023/08/31 02:59:14;;;;;;;;;;;;;;;24.04;40.11;98992.50;3161679;28;19924;-65
2023/08/31 03:00:47;;;;;;;;;;;;;;;24.04;40.15;98994.34;3165285;28;20012;-65
2023/08/31 03:02:19;;;;;;;;;;;;;;;24.03;40.51;98984.72;3170483;28;19981;-66
2023/08/31 03:03:49;;;;;;;;;;;;;;;24.02;40.16;98988.38;3170683;28;19924;-67
2023/08/31 03:05:21;;;;;;;;;;;;;;;23.98;40.19;98993.19;3170817;28;19927;-67
2023/08/31 03:06:52;;;;;;;;;;;;;;;23.96;40.33;98994.38;3170172;28;20026;-67
2023/08/31 03:08:24;;;;;;;;;;;;;;;23.94;40.64;98999.88;3170492;28;20405;-66
2023/08/31 03:09:55;;;;;;;;;;;;;;;23.92;40.64;99003.72;3169379;28;19931;-67
2023/08/31 03:11:27;;;;;;;;;;;;;;;23.89;40.48;99007.53;3160508;28;19928;-67
2023/08/31 03:12:59;;;;;;;;;;;;;;;23.87;40.64;99004.25;3164017;28;20019;-67
2023/08/31 03:14:30;;;;;;;;;;;;;;;23.86;40.44;99013.22;3166168;28;19992;-67
2023/08/31 03:16:02;;;;;;;;;;;;;;;23.84;40.69;99002.75;3170511;28;19927;-66
2023/08/31 03:17:32;;;;;;;;;;;;;;;23.83;40.56;99002.94;3169707;28;19939;-66
2023/08/31 03:19:04;;;;;;;;;;;;;;;23.82;40.78;99002.09;3170352;28;19924;-66
2023/08/31 03:20:35;;;;;;;;;;;;;;;23.82;40.78;98995.97;3170707;28;19928;-66
2023/08/31 03:22:06;;;;;;;;;;;;;;;23.81;40.64;99007.59;3170381;28;19934;-67
2023/08/31 03:23:37;;;;;;;;;;;;;;;23.80;40.74;99005.94;3170260;28;19924;-66
2023/08/31 03:25:09;;;;;;;;;;;;;;;23.80;40.52;99009.41;3165861;28;19928;-66
2023/08/31 03:26:41;;;;;;;;;;;;;;;23.80;40.48;99009.41;3164546;28;19924;-66
2023/08/31 03:28:12;;;;;;;;;;;;;;;23.79;40.56;99005.09;3169831;28;19927;-65
2023/08/31 03:29:43;;;;;;;;;;;;;;;23.78;40.57;99002.59;3170126;28;19924;-66
2023/08/31 03:31:15;;;;;;;;;;;;;;;23.79;40.59;98996.31;3170290;28;19924;-70
2023/08/31 03:32:45;;;;;;;;;;;;;;;23.80;40.49;98984.66;3170504;28;19977;-69
2023/08/31 03:34:17;;;;;;;;;;;;;;;23.80;40.64;98995.31;3170215;28;20015;-69
2023/08/31 03:35:48;;;;;;;;;;;;;;;23.80;40.81;98995.31;3169769;28;19930;-68
2023/08/31 03:37:21;;;;;;;;;;;;;;;23.78;40.68;98990.16;3170202;28;19932;-69
2023/08/31 03:38:53;;;;;;;;;;;;;;;23.78;40.70;98994.63;3169994;28;19928;-69
2023/08/31 03:40:23;;;;;;;;;;;;;;;23.77;40.81;98991.16;3165761;28;20022;-69
2023/08/31 03:41:57;;;;;;;;;;;;;;;23.74;40.88;98996.81;3167487;28;19939;-69
2023/08/31 03:43:27;;;;;;;;;;;;;;;23.73;40.53;98994.34;3170579;28;19963;-69
2023/08/31 03:44:59;;;;;;;;;;;;;;;23.71;40.81;98994.50;3169642;28;19928;-69
2023/08/31 03:46:29;;;;;;;;;;;;;;;23.70;40.85;99000.00;3170258;28;19955;-69
2023/08/31 03:48:01;;;;;;;;;;;;;;;23.70;40.73;99002.66;3170281;28;20349;-69
2023/08/31 03:49:33;;;;;;;;;;;;;;;23.67;40.74;99001.16;3170411;28;19931;-65
2023/08/31 03:51:04;;;;;;;;;;;;;;;23.65;41.07;98997.81;3170229;28;19936;-65
2023/08/31 03:52:35;;;;;;;;;;;;;;;23.65;40.97;99003.16;3169855;28;20381;-65
2023/08/31 03:54:06;;;;;;;;;;;;;;;23.62;40.91;99004.31;3166322;28;19935;-64
2023/08/31 03:55:37;;;;;;;;;;;;;;;23.60;41.18;99008.13;3158221;28;19925;-64
2023/08/31 03:57:10;;;;;;;;;;;;;;;23.58;41.06;99015.47;3158315;28;20497;-65
2023/08/31 03:58:41;;;;;;;;;;;;;;;23.54;41.17;99020.28;3169189;28;20670;-65
2023/08/31 04:00:13;;;;;;;;;;;;;;;23.51;41.17;99025.13;3158406;28;19930;-66
2023/08/31 04:01:44;;;;;;;;;;;;;;;23.47;41.47;99018.50;3156796;28;19931;-67
2023/08/31 04:03:15;;;;;;;;;;;;;;;23.44;41.45;99024.97;3160181;28;19928;-64
2023/08/31 04:04:47;;;;;;;;;;;;;;;23.42;41.63;99026.16;3169150;28;19934;-64
2023/08/31 04:06:18;;;;;;;;;;;;;;;23.42;41.35;99028.81;3170146;28;19934;-64
2023/08/31 04:07:49;;;;;;;;;;;;;;;23.43;41.76;99033.97;3170106;28;19928;-64
2023/08/31 04:09:20;;;;;;;;;;;;;;;23.43;41.46;99033.13;3159973;28;20254;-68
2023/08/31 04:10:51;;;;;;;;;;;;;;;23.42;41.58;99031.47;3165292;28;19934;-66
2023/08/31 04:12:23;;;;;;;;;;;;;;;23.41;41.44;99037.78;3167921;28;20435;-69
2023/08/31 04:13:55;;;;;;;;;;;;;;;23.36;41.65;99041.75;3169443;28;19928;-72
2023/08/31 04:15:25;;;;;;;;;;;;;;;23.33;41.46;99036.78;3172331;28;19923;-70
2023/08/31 04:16:57;;;;;;;;;;;;;;;23.33;41.57;99047.41;3172497;28;19938;-67
2023/08/31 04:18:28;;;;;;;;;;;;;;;23.32;41.78;99040.44;3172719;28;19923;-68
2023/08/31 04:19:59;;;;;;;;;;;;;;;23.33;41.74;99051.91;3171811;27;19931;-67
2023/08/31 04:21:33;;;;;;;;;;;;;;;23.33;41.71;99057.22;3170576;28;19924;-69
2023/08/31 04:23:04;;;;;;;;;;;;;;;23.35;41.65;99056.06;3164957;28;19924;-75
2023/08/31 04:24:35;;;;;;;;;;;;;;;23.36;41.53;99059.53;3167021;28;20401;-71
2023/08/31 04:26:10;;;;;;;;;;;;;;;23.39;41.69;99065.34;3165863;28;19994;-66
2023/08/31 04:27:43;;;;;;;;;;;;;;;23.42;41.82;99072.13;3170716;28;19993;-69
2023/08/31 04:29:14;;;;;;;;;;;;;;;23.46;41.49;99077.97;3161901;28;19924;-70
2023/08/31 04:30:45;;;;;;;;;;;;;;;23.47;41.61;99076.97;3169228;28;20381;-67
2023/08/31 04:32:16;;;;;;;;;;;;;;;23.47;41.81;99079.63;3172192;28;19985;-64
2023/08/31 04:33:48;;;;;;;;;;;;;;;23.50;41.49;99081.94;3172515;28;20311;-71
2023/08/31 04:35:18;;;;;;;;;;;;;;;23.56;41.35;99089.22;3172415;28;19980;-69
2023/08/31 04:36:50;;;;;;;;;;;;;;;23.59;41.33;99081.72;3172392;28;19923;-71
2023/08/31 04:38:20;;;;;;;;;;;;;;;23.65;41.13;99082.06;3170591;28;19950;-69
2023/08/31 04:39:52;;;;;;;;;;;;;;;23.67;41.18;99080.91;3172019;28;19928;-68
2023/08/31 04:41:22;;;;;;;;;;;;;;;23.65;41.67;99074.91;3170084;28;19923;-66
2023/08/31 04:42:56;;;;;;;;;;;;;;;23.67;41.22;99072.91;3171842;28;20411;-68
2023/08/31 04:44:26;;;;;;;;;;;;;;;23.69;41.21;99078.03;3172177;28;20018;-72
2023/08/31 04:45:58;;;;;;;;;;;;;;;23.71;41.37;99078.75;3172739;28;20384;-72
2023/08/31 04:47:28;;;;;;;;;;;;;;;23.71;41.20;99082.22;3172240;28;19924;-70
2023/08/31 04:49:00;;;;;;;;;;;;;;;23.71;41.15;99082.22;3172199;28;19923;-69
2023/08/31 04:50:31;;;;;;;;;;;;;;;23.70;41.20;99090.41;3147664;28;19928;-68
2023/08/31 04:52:03;;;;;;;;;;;;;;;23.70;41.28;99093.88;3169067;28;20053;-70
2023/08/31 04:53:33;;;;;;;;;;;;;;;23.71;41.34;99092.03;3170671;28;20451;-67
2023/08/31 04:55:07;;;;;;;;;;;;;;;23.72;41.38;99093.69;3171920;28;19924;-71
2023/08/31 04:56:38;;;;;;;;;;;;;;;23.73;41.46;99101.50;3163443;28;20023;-69
2023/08/31 04:58:11;;;;;;;;;;;;;;;23.73;41.44;99090.06;3163607;28;20317;-72
2023/08/31 04:59:41;;;;;;;;;;;;;;;23.75;41.47;99102.19;3171926;28;20484;-71
2023/08/31 05:01:14;;;;;;;;;;;;;;;23.78;41.47;99109.81;3155786;28;19928;-73
2023/08/31 05:02:45;;;;;;;;;;;;;;;23.80;41.15;99101.66;3160658;28;19968;-70
2023/08/31 05:04:17;;;;;;;;;;;;;;;23.81;41.50;99101.50;3169845;28;19928;-69
2023/08/31 05:05:47;;;;;;;;;;;;;;;23.83;41.19;99104.78;3165543;28;19924;-74
2023/08/31 05:07:19;;;;;;;;;;;;;;;23.87;41.40;99105.28;3159562;28;20019;-73
2023/08/31 05:08:49;;;;;;;;;;;;;;;23.89;41.48;99110.44;3167962;28;20405;-72
2023/08/31 05:10:21;;;;;;;;;;;;;;;23.89;41.44;99103.28;3169724;28;20025;-72
2023/08/31 05:11:52;;;;;;;;;;;;;;;23.93;41.13;99109.06;3168564;28;19980;-72
2023/08/31 05:13:25;;;;;;;;;;;;;;;23.95;41.22;99109.75;3159422;28;19932;-69
2023/08/31 05:14:55;;;;;;;;;;;;;;;23.98;41.15;99109.38;3164350;28;19924;-71
2023/08/31 05:16:27;;;;;;;;;;;;;;;24.00;41.39;99102.91;3167161;28;19928;-71
2023/08/31 05:17:58;;;;;;;;;;;;;;;24.04;41.22;99112.19;3166475;28;20383;-72
2023/08/31 05:19:29;;;;;;;;;;;;;;;24.07;41.34;99111.00;3171935;28;19923;-72
2023/08/31 05:21:00;;;;;;;;;;;;;;;24.10;41.23;99113.31;3168315;28;19924;-72
2023/08/31 05:22:32;;;;;;;;;;;;;;;24.13;41.22;99106.84;3167713;28;19959;-73
2023/08/31 05:24:03;;;;;;;;;;;;;;;24.16;41.07;99109.16;3171559;28;20404;-71
2023/08/31 05:25:34;;;;;;;;;;;;;;;24.20;41.11;99116.63;3172109;28;20010;-72
2023/08/31 05:27:05;;;;;;;;;;;;;;;24.26;41.02;99115.09;3165948;28;19931;-71
2023/08/31 05:28:38;;;;;;;;;;;;;;;24.29;41.06;99112.09;3171220;28;20003;-69
2023/08/31 05:30:10;;;;;;;;;;;;;;;24.33;40.78;99109.91;3171702;28;19942;-65
2023/08/31 05:31:43;;;;;;;;;;;;;;;24.37;41.03;99106.69;3171281;28;19930;-63
2023/08/31 05:33:15;;;;;;;;;;;;;;;24.41;40.76;99109.88;3168489;28;20026;-66
2023/08/31 05:34:46;;;;;;;;;;;;;;;24.48;40.72;99106.34;3161019;28;19932;-63
2023/08/31 05:36:18;;;;;;;;;;;;;;;24.56;41.05;99110.81;3171155;28;19971;-63
2023/08/31 05:37:48;;;;;;;;;;;;;;;24.69;40.99;99113.69;3170780;28;19973;-63
2023/08/31 05:39:20;;;;;;;;;;;;;;;24.84;40.52;99111.09;3169739;28;20439;-65
2023/08/31 05:40:50;;;;;;;;;;;;;;;24.99;40.69;99119.13;3169926;28;19935;-66
2023/08/31 05:42:22;;;;;;;;;;;;;;;25.13;40.21;99118.38;3161326;28;19928;-67
2023/08/31 05:43:54;;;;;;;;;;;;;;;25.29;40.04;99120.09;3155912;28;20401;-68
2023/08/31 05:45:26;;;;;;;;;;;;;;;25.45;39.89;99124.44;3161412;28;20324;-68
2023/08/31 05:46:56;;;;;;;;;;;;;;;25.57;39.36;99122.97;3169246;28;19927;-67
2023/08/31 05:48:28;;;;;;;;;;;;;;;25.71;39.19;99123.19;3160500;28;19924;-66
2023/08/31 05:49:58;;;;;;;;;;;;;;;25.78;39.31;99122.25;3171086;28;19923;-67
2023/08/31 05:51:30;;;;;;;;;;;;;;;25.90;38.91;99128.00;3171326;28;19924;-68
2023/08/31 05:53:01;;;;;;;;;;;;;;;26.02;38.75;99131.03;3162889;28;19928;-67
2023/08/31 05:54:33;;;;;;;;;;;;;;;26.11;38.53;99127.25;3169711;28;20024;-66
2023/08/31 05:56:04;;;;;;;;;;;;;;;26.21;38.67;99124.31;3167246;28;19924;-66
2023/08/31 05:57:37;;;;;;;;;;;;;;;26.31;38.15;99120.31;3168504;28;20409;-68
2023/08/31 05:59:10;;;;;;;;;;;;;;;26.44;38.15;99127.63;3170893;28;19923;-71
2023/08/31 06:00:41;;;;;;;;;;;;;;;26.51;37.68;99125.91;3159109;28;19928;-71
2023/08/31 06:02:12;;;;;;;;;;;;;;;26.54;37.42;99122.03;3155817;28;20046;-68
2023/08/31 06:03:43;;;;;;;;;;;;;;;26.63;37.46;99122.75;3165605;28;20298;-68
2023/08/31 06:05:16;;;;;;;;;;;;;;;26.69;37.16;99122.00;3168765;28;19931;-69
2023/08/31 06:06:47;;;;;;;;;;;;;;;26.81;37.27;99125.81;3163706;28;20006;-67
2023/08/31 06:08:19;;;;;;;;;;;;;;;26.86;37.39;99122.56;3165415;28;19932;-67
2023/08/31 06:09:49;;;;;;;;;;;;;;;26.97;37.25;99122.06;3170658;28;19989;-67
2023/08/31 06:11:22;;;;;;;;;;;;;;;27.03;37.28;99126.63;3166975;28;19989;-68
2023/08/31 06:12:52;;;;;;;;;;;;;;;27.10;36.95;99127.53;3161056;28;19926;-66
2023/08/31 06:14:25;;;;;;;;;;;;;;;27.22;37.24;99127.88;3158559;28;19976;-71
2023/08/31 06:15:57;;;;;;;;;;;;;;;27.35;37.08;99125.28;3158634;28;19928;-68
2023/08/31 06:17:29;;;;;;;;;;;;;;;27.53;37.06;99126.66;3164369;28;19930;-70
2023/08/31 06:19:00;;;;;;;;;;;;;;;27.74;36.92;99129.25;3169543;28;19924;-69
2023/08/31 06:20:32;;;;;;;;;;;;;;;27.90;36.35;99133.50;3170877;28;20158;-65
2023/08/31 06:22:03;;;;;;;;;;;;;;;28.00;36.41;99133.97;3170198;28;19930;-68
2023/08/31 06:23:35;;;;;;;;;;;;;;;28.06;36.34;99133.16;3167655;28;19980;-68
2023/08/31 06:25:06;;;;;;;;;;;;;;;28.05;35.76;99139.56;3170389;28;19923;-67
2023/08/31 06:26:38;;;;;;;;;;;;;;;28.04;35.97;99134.38;3169816;28;19924;-66
2023/08/31 06:28:11;;;;;;;;;;;;;;;27.92;35.88;99133.28;3170884;28;19985;-70
2023/08/31 06:29:44;;;;;;;;;;;;;;;27.95;35.60;99138.25;3171394;28;20045;-64
2023/08/31 06:31:15;;;;;;;;;;;;;;;27.93;35.68;99140.31;3163666;28;20393;-69
2023/08/31 06:32:48;;;;;;;;;;;;;;;27.87;35.23;99137.41;3157138;28;20060;-71
2023/08/31 06:34:18;;;;;;;;;;;;;;;27.86;35.23;99149.13;3169924;28;19923;-75
2023/08/31 06:35:51;;;;;;;;;;;;;;;27.87;35.06;99142.75;3166050;28;19924;-69
2023/08/31 06:37:22;;;;;;;;;;;;;;;27.92;35.20;99144.00;3162299;28;19963;-70
2023/08/31 06:38:53;;;;;;;;;;;;;;;27.94;35.36;99147.31;3168306;28;20151;-74
2023/08/31 06:40:24;;;;;;;;;;;;;;;27.95;34.95;99146.28;3167938;28;20412;-69
2023/08/31 06:41:56;;;;;;;;;;;;;;;27.99;35.28;99155.59;3163248;28;20010;-70
2023/08/31 06:43:26;;;;;;;;;;;;;;;28.01;35.02;99153.50;3168849;28;20075;-69
2023/08/31 06:44:59;;;;;;;;;;;;;;;28.02;34.75;99149.84;3161398;28;19924;-71
2023/08/31 06:46:33;;;;;;;;;;;;;;;28.01;34.79;99143.66;3170892;28;20065;-71
2023/08/31 06:48:05;;;;;;;;;;;;;;;28.04;34.64;99148.63;3162393;28;19947;-71
2023/08/31 06:49:37;;;;;;;;;;;;;;;28.06;34.72;99145.72;3161762;28;20049;-71
2023/08/31 06:51:08;;;;;;;;;;;;;;;28.10;34.70;99149.66;3170383;28;19977;-71
2023/08/31 06:52:41;;;;;;;;;;;;;;;28.13;34.85;99143.94;3162390;28;20425;-72
2023/08/31 06:54:12;;;;;;;;;;;;;;;28.15;34.86;99141.03;3168640;28;19928;-70
2023/08/31 06:55:44;;;;;;;;;;;;;;;28.23;34.67;99146.22;3167531;28;19932;-71
2023/08/31 06:57:14;;;;;;;;;;;;;;;28.33;34.56;99144.00;3160166;28;19924;-70
2023/08/31 06:58:46;;;;;;;;;;;;;;;28.43;34.79;99147.16;3170579;28;19947;-72
2023/08/31 07:00:19;;;;;;;;;;;;;;;28.50;34.39;99145.31;3170289;28;19924;-70
2023/08/31 07:01:51;;;;;;;;;;;;;;;28.61;34.29;99153.81;3152532;28;19928;-70
2023/08/31 07:03:21;;;;;;;;;;;;;;;28.67;34.34;99153.81;3161744;28;19928;-70
2023/08/31 07:04:53;;;;;;;;;;;;;;;28.74;34.09;99154.66;3169779;28;20077;-71
2023/08/31 07:06:23;;;;;;;;;;;;;;;28.84;33.95;99154.28;3170976;28;19932;-71
2023/08/31 07:07:55;;;;;;;;;;;;;;;28.96;33.92;99146.47;3163672;28;19924;-72
2023/08/31 07:09:26;;;;;;;;;;;;;;;29.07;33.80;99161.13;3171361;28;19924;-72
2023/08/31 07:10:58;;;;;;;;;;;;;;;29.13;33.87;99153.09;3168860;28;20642;-73
2023/08/31 07:12:29;;;;;;;;;;;;;;;29.16;34.00;99152.69;3171063;28;20312;-70
2023/08/31 07:14:01;;;;;;;;;;;;;;;29.25;33.86;99156.84;3159625;28;19924;-69
2023/08/31 07:15:33;;;;;;;;;;;;;;;29.25;33.73;99162.19;3169541;28;19977;-73
2023/08/31 07:17:05;;;;;;;;;;;;;;;29.20;33.27;99153.13;3170424;28;19928;-73
2023/08/31 07:18:36;;;;;;;;;;;;;;;29.15;33.70;99151.03;3170194;28;19924;-70
2023/08/31 07:20:09;;;;;;;;;;;;;;;29.18;33.66;99145.25;3170515;28;20469;-67
2023/08/31 07:21:39;;;;;;;;;;;;;;;29.25;33.70;99143.44;3170352;28;19992;-66
2023/08/31 07:23:11;;;;;;;;;;;;;;;29.37;33.24;99145.47;3165999;28;20367;-68
2023/08/31 07:24:42;;;;;;;;;;;;;;;29.47;33.11;99143.22;3169862;28;19928;-66
2023/08/31 07:26:13;;;;;;;;;;;;;;;29.55;33.38;99155.56;3165858;28;20370;-67
2023/08/31 07:27:44;;;;;;;;;;;;;;;29.68;33.36;99156.41;3169054;28;19928;-70
2023/08/31 07:29:16;;;;;;;;;;;;;;;29.87;33.31;99154.72;3170329;28;20008;-70
2023/08/31 07:30:48;;;;;;;;;;;;;;;30.08;33.09;99150.97;3170156;28;20011;-67
2023/08/31 07:32:19;;;;;;;;;;;;;;;30.35;32.76;99157.09;3170123;28;19935;-67
2023/08/31 07:33:50;;;;;;;;;;;;;;;30.69;32.48;99156.91;3170063;28;20371;-67
2023/08/31 07:35:22;;;;;;;;;;;;;;;31.00;32.13;99158.81;3169769;28;20069;-67
2023/08/31 07:36:52;;;;;;;;;;;;;;;31.26;31.68;99153.22;3166383;28;19978;-65
2023/08/31 07:38:24;;;;;;;;;;;;;;;31.47;31.43;99149.38;3163061;28;19924;-66
2023/08/31 07:39:54;;;;;;;;;;;;;;;31.76;31.17;99149.72;3168556;28;19927;-69
2023/08/31 07:41:26;;;;;;;;;;;;;;;32.05;30.75;99147.38;3167991;28;20686;-69
2023/08/31 07:42:57;;;;;;;;;;;;;;;32.33;29.81;99153.03;3170358;28;19924;-67
2023/08/31 07:44:29;;;;;;;;;;;;;;;32.37;29.88;99154.22;3159698;28;19939;-68
2023/08/31 07:46:01;;;;;;;;;;;;;;;32.46;29.54;99146.69;3169388;28;19931;-68
2023/08/31 07:47:32;;;;;;;;;;;;;;;32.62;29.16;99147.91;3171212;28;19950;-67
2023/08/31 07:49:04;;;;;;;;;;;;;;;32.74;28.91;99147.94;3168268;28;19924;-68
2023/08/31 07:50:35;;;;;;;;;;;;;;;32.76;28.63;99152.06;3171234;28;19930;-70
2023/08/31 07:52:06;;;;;;;;;;;;;;;32.86;28.64;99148.81;3169874;28;19947;-68
2023/08/31 07:53:37;;;;;;;;;;;;;;;33.07;28.34;99147.50;3169368;28;20371;-71
2023/08/31 07:55:09;;;;;;;;;;;;;;;33.24;27.98;99148.44;3173023;28;19924;-70
2023/08/31 07:56:41;;;;;;;;;;;;;;;33.41;27.85;99147.78;3172069;28;20285;-69
2023/08/31 07:58:13;;;;;;;;;;;;;;;33.51;27.54;99153.41;3170576;28;19931;-70